Time;durP1;ratioP1;P1;durP2;ratioP2;P2;SDS_P1;SDS_P2;PMS_P1;PMS_P2;Temp;Humidity;BMP_temperature;BMP_pressure;BME280_temperature;BME280_humidity;BME280_pressure;Samples;Min_cycle;Max_cycle;Signal;HPM_P1;HPM_P2
2023/07/07 00:00:33;;;;;;;9.25;4.32;;;;;;;14.28;100.00;93010.56;4959928;29;20031;-83
2023/07/07 00:02:58;;;;;;;8.43;4.82;;;;;;;14.28;100.00;93010.56;4958582;29;20171;-82
2023/07/07 00:05:24;;;;;;;7.90;4.22;;;;;;;14.28;100.00;93005.31;4958914;28;20039;-83
2023/07/07 00:07:50;;;;;;;11.13;4.75;;;;;;;14.27;100.00;93014.28;4959870;29;20054;-83
2023/07/07 00:10:17;;;;;;;8.23;4.38;;;;;;;14.28;100.00;93007.94;4958680;28;20086;-82
2023/07/07 00:12:43;;;;;;;9.98;4.45;;;;;;;14.27;100.00;93003.75;4960290;28;20031;-83
2023/07/07 00:15:09;;;;;;;9.48;4.20;;;;;;;14.26;100.00;92999.56;4958747;28;20034;-83
2023/07/07 00:17:34;;;;;;;12.32;4.35;;;;;;;14.24;100.00;93008.84;4959694;29;20035;-82
2023/07/07 00:20:06;;;;;;;10.30;4.65;;;;;;;14.22;100.00;93006.47;4959793;28;20366;-83
2023/07/07 00:22:33;;;;;;;11.35;4.22;;;;;;;14.20;100.00;93013.13;4960217;28;20040;-81
2023/07/07 00:24:58;;;;;;;10.05;4.18;;;;;;;14.16;100.00;93010.28;4958805;28;20038;-83
2023/07/07 00:27:24;;;;;;;7.15;3.90;;;;;;;14.12;100.00;93007.47;4959466;29;20047;-83
2023/07/07 00:29:49;;;;;;;8.90;4.07;;;;;;;14.07;100.00;93014.69;4959760;28;20168;-83
2023/07/07 00:32:15;;;;;;;8.70;4.47;;;;;;;14.06;100.00;93013.16;4957857;29;20449;-83
2023/07/07 00:34:41;;;;;;;9.15;4.20;;;;;;;14.05;100.00;93009.75;4959222;28;20031;-83
2023/07/07 00:37:07;;;;;;;11.60;4.68;;;;;;;14.02;100.00;93009.53;4959146;29;20600;-81
2023/07/07 00:39:33;;;;;;;9.18;4.47;;;;;;;14.04;100.00;93013.44;4959024;29;20090;-81
2023/07/07 00:41:59;;;;;;;11.05;4.63;;;;;;;14.07;100.00;93012.06;4958278;29;20039;-81
2023/07/07 00:44:48;;;;;;;9.00;4.75;;;;;;;14.10;100.00;93008.84;4958374;28;20034;-82
2023/07/07 00:47:14;;;;;;;10.60;4.47;;;;;;;14.15;100.00;93006.13;4973273;28;20069;-82
2023/07/07 00:49:40;;;;;;;8.38;4.70;;;;;;;14.12;100.00;93001.44;4959582;28;20046;-82
2023/07/07 00:52:06;;;;;;;9.25;4.78;;;;;;;14.08;100.00;93005.75;4957758;28;20039;-82
2023/07/07 00:54:35;;;;;;;8.35;4.70;;;;;;;14.06;100.00;93002.63;4958138;28;20125;-81
2023/07/07 00:57:03;;;;;;;9.65;5.00;;;;;;;14.05;100.00;93006.31;4958240;28;20035;-82
2023/07/07 00:59:35;;;;;;;9.75;5.47;;;;;;;14.01;100.00;93008.00;4958042;29;20133;-81
2023/07/07 01:02:13;;;;;;;9.30;5.20;;;;;;;13.99;100.00;93007.50;4957959;29;20031;-82
2023/07/07 01:04:44;;;;;;;10.82;5.00;;;;;;;13.94;100.00;93003.91;4958639;29;20505;-82
2023/07/07 01:07:15;;;;;;;11.43;5.28;;;;;;;13.93;100.00;93001.56;4957680;29;20035;-81
2023/07/07 01:09:41;;;;;;;10.40;4.50;;;;;;;13.95;100.00;93002.81;4953989;29;20047;-82
2023/07/07 01:12:12;;;;;;;10.95;5.00;;;;;;;13.94;100.00;93006.53;4953181;28;20035;-81
2023/07/07 01:14:38;;;;;;;8.30;4.47;;;;;;;13.92;100.00;93011.31;4958319;29;20059;-82
2023/07/07 01:17:19;;;;;;;8.27;4.28;;;;;;;13.91;100.00;93007.09;4956283;29;20032;-82
2023/07/07 01:20:21;;;;;;;8.88;4.32;;;;;;;13.90;100.00;93002.91;4971767;28;20043;-81
2023/07/07 01:22:56;;;;;;;9.07;4.70;;;;;;;13.89;100.00;93003.19;4955260;28;20042;-82
2023/07/07 01:25:27;;;;;;;8.85;4.18;;;;;;;13.85;100.00;92997.75;4975285;28;20134;-83
2023/07/07 01:28:20;;;;;;;10.90;5.00;;;;;;;13.84;100.00;92998.03;4956755;28;20169;-82
2023/07/07 01:30:51;;;;;;;10.00;4.70;;;;;;;13.82;100.00;93002.81;4954115;28;20035;-82
2023/07/07 01:33:22;;;;;;;10.00;4.40;;;;;;;13.78;100.00;93012.38;4946460;29;20031;-81
2023/07/07 01:35:48;;;;;;;10.43;4.70;;;;;;;13.77;100.00;93011.59;4957859;28;20047;-82
2023/07/07 01:38:37;;;;;;;7.85;4.38;;;;;;;13.75;100.00;93011.09;4957763;28;20038;-81
2023/07/07 01:41:36;;;;;;;8.95;4.55;;;;;;;13.73;100.00;93011.41;4955256;29;20031;-82
2023/07/07 01:44:23;;;;;;;8.10;4.40;;;;;;;13.70;100.00;93008.56;4956867;29;20126;-81
2023/07/07 01:46:58;;;;;;;8.20;4.50;;;;;;;13.71;100.00;93012.75;4957317;28;20062;-81
2023/07/07 01:49:43;;;;;;;8.57;4.75;;;;;;;13.70;100.00;93013.84;4958017;28;20035;-82
2023/07/07 01:52:18;;;;;;;9.25;4.32;;;;;;;13.63;100.00;93014.22;4957869;28;20263;-82
2023/07/07 01:54:49;;;;;;;7.28;4.18;;;;;;;13.63;100.00;93018.72;4956959;28;20130;-82
2023/07/07 01:57:16;;;;;;;11.57;4.45;;;;;;;13.61;100.00;93013.72;4957869;28;20035;-82
2023/07/07 01:59:43;;;;;;;9.90;4.65;;;;;;;13.55;100.00;93004.38;4956601;28;20031;-82
2023/07/07 02:02:09;;;;;;;9.77;4.60;;;;;;;13.53;100.00;93004.69;4956261;29;21484;-82
2023/07/07 02:04:34;;;;;;;10.10;4.50;;;;;;;13.52;100.00;93011.00;4956094;29;20118;-82
2023/07/07 02:07:00;;;;;;;9.50;4.45;;;;;;;13.48;100.00;93015.28;4958757;28;20038;-82
2023/07/07 02:09:26;;;;;;;9.05;4.53;;;;;;;13.51;100.00;93014.72;4956040;28;20039;-82
2023/07/07 02:11:52;;;;;;;8.40;4.82;;;;;;;13.50;100.00;92994.72;4958644;28;20032;-82
2023/07/07 02:14:17;;;;;;;8.70;4.40;;;;;;;13.46;100.00;92992.97;4957564;29;20046;-83
2023/07/07 02:16:43;;;;;;;8.38;4.22;;;;;;;13.54;100.00;93003.59;4956063;28;20035;-81
2023/07/07 02:19:08;;;;;;;11.50;4.70;;;;;;;13.52;100.00;93011.00;4956926;29;20043;-82
2023/07/07 02:21:34;;;;;;;10.82;4.35;;;;;;;13.54;100.00;93006.22;4959117;28;20031;-82
2023/07/07 02:24:01;;;;;;;11.07;4.63;;;;;;;13.51;100.00;92998.94;4959102;28;20039;-82
2023/07/07 02:26:27;;;;;;;9.90;4.57;;;;;;;13.50;100.00;93012.34;4948694;28;20115;-82
2023/07/07 02:28:52;;;;;;;10.63;4.50;;;;;;;13.46;100.00;93020.03;4962162;28;20349;-82
2023/07/07 02:31:18;;;;;;;9.35;4.45;;;;;;;13.41;100.00;93017.50;4948756;29;20095;-82
2023/07/07 02:33:43;;;;;;;9.95;4.40;;;;;;;13.45;100.00;93022.97;4967793;28;20058;-80
2023/07/07 02:36:11;;;;;;;7.55;4.10;;;;;;;13.44;100.00;93024.03;4967424;28;20072;-81
2023/07/07 02:38:37;;;;;;;8.95;4.30;;;;;;;13.42;100.00;93015.66;4967221;28;20203;-80
2023/07/07 02:41:03;;;;;;;9.07;4.32;;;;;;;13.42;100.00;93021.72;4965193;28;20126;-82
2023/07/07 02:43:30;;;;;;;9.05;4.88;;;;;;;13.38;100.00;93030.47;4956604;29;20126;-82
2023/07/07 02:45:56;;;;;;;11.05;4.63;;;;;;;13.35;100.00;93026.53;4957910;28;20434;-82
2023/07/07 02:48:22;;;;;;;7.57;4.30;;;;;;;13.38;100.00;93027.84;4923102;29;20111;-81
2023/07/07 02:51:03;;;;;;;9.00;4.20;;;;;;;13.36;100.00;93017.59;4919169;29;20036;-82
2023/07/07 02:53:31;;;;;;;8.15;4.28;;;;;;;13.34;100.00;93011.84;4919640;29;20040;-81
2023/07/07 02:55:57;;;;;;;9.63;4.22;;;;;;;13.32;100.00;93019.25;4917410;29;20054;-83
2023/07/07 02:58:24;;;;;;;12.32;4.30;;;;;;;13.33;100.00;93018.19;4916645;29;20040;-83
2023/07/07 03:00:50;;;;;;;8.60;4.45;;;;;;;13.32;100.00;93021.88;4918668;29;20489;-82
2023/07/07 03:03:16;;;;;;;7.35;3.88;;;;;;;13.28;100.00;93018.25;4919030;29;20067;-83
2023/07/07 03:05:43;;;;;;;9.30;4.32;;;;;;;13.24;100.00;93019.88;4919229;29;20076;-83
2023/07/07 03:08:09;;;;;;;9.00;3.97;;;;;;;13.24;100.00;93019.88;4922253;29;20054;-83
2023/07/07 03:10:37;;;;;;;8.02;4.18;;;;;;;13.24;100.00;93025.13;4917524;29;20032;-83
2023/07/07 03:13:03;;;;;;;9.30;4.22;;;;;;;13.24;100.00;93014.63;4917061;29;20036;-83
2023/07/07 03:15:40;;;;;;;11.45;4.65;;;;;;;13.20;100.00;93016.28;4917332;29;20043;-83
2023/07/07 03:18:14;;;;;;;10.20;4.68;;;;;;;13.22;100.00;93020.19;4916221;29;20281;-83
2023/07/07 03:20:50;;;;;;;12.90;3.97;;;;;;;13.19;100.00;93023.38;4919474;29;20100;-82
2023/07/07 03:23:20;;;;;;;7.38;3.80;;;;;;;13.18;100.00;93019.19;4917330;29;20036;-83
2023/07/07 03:25:47;;;;;;;12.20;4.53;;;;;;;13.19;100.00;93012.09;4917500;29;20048;-83
2023/07/07 03:28:13;;;;;;;10.65;4.40;;;;;;;13.20;100.00;93018.91;4916200;29;20040;-83
2023/07/07 03:30:41;;;;;;;10.80;4.15;;;;;;;13.22;100.00;93016.78;4916992;29;20037;-83
2023/07/07 03:33:16;;;;;;;11.32;4.03;;;;;;;13.20;100.00;93016.28;4919042;29;20036;-84
2023/07/07 03:35:44;;;;;;;9.52;4.30;;;;;;;13.18;100.00;93016.56;4917546;29;20036;-83
2023/07/07 03:38:10;;;;;;;10.27;4.43;;;;;;;13.17;100.00;93019.47;4919087;29;20039;-83
2023/07/07 03:40:35;;;;;;;8.05;4.38;;;;;;;13.11;100.00;93022.19;4917327;29;20040;-83
2023/07/07 03:43:01;;;;;;;9.85;4.70;;;;;;;13.15;100.00;93016.34;4933744;29;20038;-82
2023/07/07 03:45:31;;;;;;;10.20;4.00;;;;;;;13.11;100.00;93008.28;4917726;29;20044;-82
2023/07/07 03:48:00;;;;;;;9.50;4.35;;;;;;;13.16;100.00;93012.66;4934324;29;20052;-82
2023/07/07 03:50:25;;;;;;;8.52;4.20;;;;;;;13.15;100.00;93016.34;4932310;29;20048;-82
2023/07/07 03:52:52;;;;;;;7.93;3.85;;;;;;;13.15;100.00;93014.53;4932532;29;20074;-82
2023/07/07 03:55:17;;;;;;;8.52;3.60;;;;;;;13.17;100.00;93014.22;4932954;29;20044;-82
2023/07/07 03:57:43;;;;;;;7.85;3.67;;;;;;;13.22;100.00;93011.53;4927812;29;20036;-82
2023/07/07 04:00:11;;;;;;;6.80;3.65;;;;;;;13.23;100.00;93020.94;4937081;29;20040;-83
2023/07/07 04:02:40;;;;;;;8.18;3.53;;;;;;;13.23;100.00;93018.31;4937891;29;20083;-82
2023/07/07 04:05:05;;;;;;;8.52;4.10;;;;;;;13.26;100.00;93017.75;4935990;29;20390;-82
2023/07/07 04:07:31;;;;;;;8.77;3.50;;;;;;;13.28;100.00;93015.63;4935973;29;20389;-82
2023/07/07 04:09:59;;;;;;;7.15;3.60;;;;;;;13.33;100.00;93013.72;4930958;29;20358;-83
2023/07/07 04:12:25;;;;;;;8.45;4.18;;;;;;;13.36;100.00;93011.56;4932836;29;20068;-83
2023/07/07 04:14:51;;;;;;;7.82;3.40;;;;;;;13.40;100.00;93013.34;4919312;29;20036;-82
2023/07/07 04:17:16;;;;;;;10.35;3.83;;;;;;;13.44;100.00;93008.25;4948257;29;20104;-83
2023/07/07 04:19:42;;;;;;;10.00;4.13;;;;;;;13.49;100.00;93014.22;4946368;29;20035;-82
2023/07/07 04:22:08;;;;;;;11.60;4.10;;;;;;;13.54;100.00;93015.97;4926360;29;20038;-82
2023/07/07 04:24:34;;;;;;;13.45;4.03;;;;;;;13.54;100.00;93005.44;4934231;29;20044;-82
2023/07/07 04:27:00;;;;;;;11.70;3.92;;;;;;;13.61;100.00;93005.06;4938263;29;20035;-82
2023/07/07 04:29:25;;;;;;;11.32;4.72;;;;;;;13.65;100.00;93019.19;4937191;29;20031;-82
2023/07/07 04:31:51;;;;;;;13.07;4.40;;;;;;;13.67;100.00;93009.16;4939552;29;20040;-82
2023/07/07 04:34:16;;;;;;;9.15;3.65;;;;;;;13.72;100.00;93004.56;4938614;29;20047;-82
2023/07/07 04:36:42;;;;;;;9.25;4.00;;;;;;;13.77;100.00;93011.59;4934822;29;20044;-81
2023/07/07 04:39:08;;;;;;;8.50;3.80;;;;;;;13.79;100.00;93012.09;4939656;29;20058;-83
2023/07/07 04:41:33;;;;;;;11.38;4.55;;;;;;;13.84;100.00;93011.97;4937099;29;20325;-82
2023/07/07 04:44:00;;;;;;;9.27;3.80;;;;;;;13.86;100.00;93015.09;4938790;29;20098;-83
2023/07/07 04:46:32;;;;;;;7.20;3.90;;;;;;;13.90;100.00;93021.34;4940162;29;20046;-83
2023/07/07 04:48:58;;;;;;;9.32;3.83;;;;;;;13.94;100.00;93017.06;4960821;29;20043;-83
2023/07/07 04:51:24;;;;;;;9.00;3.47;;;;;;;14.01;100.00;93027.19;4942293;29;20039;-82
2023/07/07 04:53:50;;;;;;;7.05;3.60;;;;;;;14.07;100.00;93027.84;4957380;29;20042;-82
2023/07/07 04:56:21;;;;;;;8.55;3.47;;;;;;;14.12;100.00;93033.03;4955665;28;20042;-83
2023/07/07 04:58:49;;;;;;;9.90;4.35;;;;;;;14.16;100.00;93033.97;4954014;28;20039;-83
2023/07/07 05:01:20;;;;;;;6.47;3.42;;;;;;;14.23;100.00;93038.84;4950254;29;20030;-82
2023/07/07 05:03:52;;;;;;;10.75;4.10;;;;;;;14.29;100.00;93045.59;4945039;29;20023;-82
2023/07/07 05:06:18;;;;;;;9.52;4.25;;;;;;;14.33;100.00;93039.44;4959075;28;20039;-82
2023/07/07 05:08:45;;;;;;;9.60;3.95;;;;;;;14.43;100.00;93045.56;4956553;29;20058;-82
2023/07/07 05:11:13;;;;;;;8.55;4.40;;;;;;;14.48;100.00;93056.78;4938927;29;20135;-82
2023/07/07 05:13:38;;;;;;;8.02;3.80;;;;;;;14.55;100.00;93061.69;4939069;29;20044;-83
2023/07/07 05:16:07;;;;;;;8.65;3.53;;;;;;;14.64;100.00;93065.16;4940805;29;20298;-83
2023/07/07 05:18:32;;;;;;;8.70;4.18;;;;;;;14.71;100.00;93057.63;4938156;29;20075;-82
2023/07/07 05:20:59;;;;;;;10.32;4.20;;;;;;;14.83;100.00;93067.63;4940241;29;20039;-82
2023/07/07 05:23:25;;;;;;;7.30;3.55;;;;;;;14.91;100.00;93074.06;4958885;28;20031;-83
2023/07/07 05:25:51;;;;;;;7.63;3.97;;;;;;;15.04;100.00;93067.97;4959330;28;20050;-82
2023/07/07 05:28:17;;;;;;;10.02;3.53;;;;;;;15.14;100.00;93072.22;4959690;29;20073;-82
2023/07/07 05:30:43;;;;;;;7.93;4.20;;;;;;;15.23;100.00;93077.56;4959557;29;20035;-82
2023/07/07 05:33:10;;;;;;;8.48;3.78;;;;;;;15.28;100.00;93083.47;4959121;29;20061;-83
2023/07/07 05:35:35;;;;;;;7.93;3.83;;;;;;;15.42;100.00;93091.31;4950859;28;20036;-83
2023/07/07 05:38:02;;;;;;;9.43;3.92;;;;;;;15.52;100.00;93092.94;4959605;29;20085;-83
2023/07/07 05:40:28;;;;;;;11.98;3.90;;;;;;;15.61;100.00;93097.19;4959197;28;20023;-83
2023/07/07 05:42:55;;;;;;;10.43;4.13;;;;;;;15.67;100.00;93095.22;4946272;29;20041;-82
2023/07/07 05:45:23;;;;;;;17.05;4.70;;;;;;;15.78;100.00;93095.75;4939810;29;20031;-83
2023/07/07 05:47:48;;;;;;;10.32;4.63;;;;;;;15.92;100.00;93100.94;4958464;28;20058;-83
2023/07/07 05:50:14;;;;;;;12.73;4.30;;;;;;;16.10;100.00;93097.31;4958465;28;20039;-83
2023/07/07 05:52:41;;;;;;;10.02;3.85;;;;;;;16.64;100.00;93102.44;4939736;29;20496;-83
2023/07/07 05:55:17;;;;;;;9.75;3.97;;;;;;;17.42;100.00;93112.28;4951814;28;20035;-83
2023/07/07 05:57:43;;;;;;;12.98;4.35;;;;;;;17.77;100.00;93117.53;4952236;28;20035;-84
2023/07/07 06:00:09;;;;;;;11.43;4.20;;;;;;;18.27;100.00;93119.59;4941696;29;20058;-83
2023/07/07 06:02:38;;;;;;;15.52;4.32;;;;;;;18.49;100.00;93121.22;4958182;29;20047;-84
2023/07/07 06:05:04;;;;;;;9.20;4.20;;;;;;;18.75;100.00;93122.94;4958119;28;20039;-83
2023/07/07 06:07:30;;;;;;;9.15;3.80;;;;;;;19.38;100.00;93120.34;4956423;29;20130;-83
2023/07/07 06:09:57;;;;;;;13.35;5.07;;;;;;;19.37;100.00;93126.78;4937750;29;20035;-84
2023/07/07 06:12:23;;;;;;;14.43;5.03;;;;;;;19.65;100.00;93127.75;4924195;29;20054;-84
2023/07/07 06:14:49;;;;;;;9.00;4.25;;;;;;;19.84;100.00;93129.97;4958379;28;20062;-84
2023/07/07 06:17:14;;;;;;;10.15;4.15;;;;;;;19.91;100.00;93134.72;4941125;29;20058;-84
2023/07/07 06:19:40;;;;;;;7.47;4.00;;;;;;;20.23;100.00;93130.47;4958214;28;20042;-84
2023/07/07 06:22:05;;;;;;;10.07;3.63;;;;;;;20.39;100.00;93127.94;4957121;29;20027;-82
2023/07/07 06:24:31;;;;;;;8.38;4.05;;;;;;;20.88;100.00;93127.97;4933347;29;20053;-83
2023/07/07 06:26:56;;;;;;;7.68;4.13;;;;;;;20.83;100.00;93130.84;4956906;28;20047;-83
2023/07/07 06:29:22;;;;;;;9.82;3.95;;;;;;;20.68;100.00;93134.97;4958560;28;20494;-82
2023/07/07 06:31:48;;;;;;;9.55;4.07;;;;;;;20.58;100.00;93138.84;4941105;29;20027;-83
2023/07/07 06:34:14;;;;;;;12.57;4.40;;;;;;;20.97;100.00;93138.50;4957481;29;20500;-83
2023/07/07 06:36:40;;;;;;;12.85;4.60;;;;;;;20.45;100.00;93144.47;4958050;28;20042;-83
2023/07/07 06:39:05;;;;;;;10.50;4.50;;;;;;;20.13;100.00;93137.00;4958073;29;20031;-82
2023/07/07 06:41:31;;;;;;;8.40;4.18;;;;;;;19.90;100.00;93143.78;4943347;28;20051;-83
2023/07/07 06:43:57;;;;;;;12.25;4.55;;;;;;;19.73;100.00;93144.75;4937199;29;20114;-82
2023/07/07 06:46:25;;;;;;;12.00;4.38;;;;;;;19.44;100.00;93142.94;4958071;28;20481;-82
2023/07/07 06:48:50;;;;;;;15.10;4.72;;;;;;;19.27;100.00;93134.03;4956167;28;20051;-83
2023/07/07 06:51:18;;;;;;;10.25;4.88;;;;;;;19.27;100.00;93136.69;4957073;29;20126;-82
2023/07/07 06:53:44;;;;;;;11.73;5.28;;;;;;;19.13;100.00;93138.78;4957392;29;20043;-82
2023/07/07 06:56:09;;;;;;;12.30;4.47;;;;;;;19.02;100.00;93132.31;4957690;28;20093;-82
2023/07/07 06:58:36;;;;;;;12.13;5.20;;;;;;;18.82;100.00;93144.44;4939881;29;20027;-82
2023/07/07 07:01:01;;;;;;;14.52;5.57;;;;;;;18.95;100.00;93132.81;4957305;29;20039;-83
2023/07/07 07:03:28;;;;;;;19.17;5.72;;;;;;;18.88;100.00;93130.69;4957111;29;20473;-83
2023/07/07 07:05:54;;;;;;;14.02;5.38;;;;;;;18.76;100.00;93125.28;4940212;29;20035;-81
2023/07/07 07:08:20;;;;;;;17.80;4.88;;;;;;;18.81;100.00;93141.03;4956307;29;20035;-82
2023/07/07 07:10:45;;;;;;;10.23;4.40;;;;;;;18.70;100.00;93142.47;4957277;29;20401;-83
2023/07/07 07:13:11;;;;;;;13.57;4.88;;;;;;;18.77;100.00;93140.09;4940094;29;20035;-83
2023/07/07 07:15:37;;;;;;;9.45;3.80;;;;;;;19.07;100.00;93140.06;4957042;28;20521;-82
2023/07/07 07:18:02;;;;;;;13.23;4.40;;;;;;;18.97;100.00;93143.13;4958017;29;20035;-83
2023/07/07 07:20:28;;;;;;;25.20;6.45;;;;;;;19.03;100.00;93144.50;4956892;29;20395;-83
2023/07/07 07:22:53;;;;;;;9.32;4.25;;;;;;;18.90;100.00;93147.06;4957340;28;20043;-83
2023/07/07 07:25:19;;;;;;;9.13;4.57;;;;;;;19.18;100.00;93141.25;4957006;28;20047;-82
2023/07/07 07:27:45;;;;;;;9.68;4.43;;;;;;;19.42;100.00;93150.44;4956676;29;20584;-83
2023/07/07 07:30:12;;;;;;;14.60;4.53;;;;;;;19.67;100.00;93152.09;4956652;28;20046;-82
2023/07/07 07:32:38;;;;;;;9.93;4.60;;;;;;;19.67;100.00;93146.03;4956817;29;20050;-83
2023/07/07 07:35:04;;;;;;;8.73;4.43;;;;;;;19.74;100.00;93151.59;4957026;28;20528;-83
2023/07/07 07:37:30;;;;;;;10.70;4.10;;;;;;;19.77;100.00;93150.97;4960495;28;20495;-82
2023/07/07 07:39:56;;;;;;;10.10;4.28;;;;;;;19.82;100.00;93152.66;4956221;28;20130;-83
2023/07/07 07:42:21;;;;;;;9.73;4.35;;;;;;;19.82;100.00;93152.66;4956684;29;20106;-83
2023/07/07 07:44:47;;;;;;;8.18;4.22;;;;;;;19.95;100.00;93154.25;4957107;28;20440;-83
2023/07/07 07:47:14;;;;;;;8.40;4.18;;;;;;;19.92;100.00;93157.53;4956571;29;20369;-83
2023/07/07 07:49:40;;;;;;;11.73;4.65;;;;;;;19.91;100.00;93140.81;4944229;29;20505;-83
2023/07/07 07:52:06;;;;;;;11.32;4.45;;;;;;;20.13;100.00;93147.63;4937485;29;20044;-82
2023/07/07 07:54:32;;;;;;;10.85;4.20;;;;;;;20.16;100.00;93157.59;4923747;29;20512;-83
2023/07/07 07:56:58;;;;;;;10.07;4.10;;;;;;;20.25;100.00;93148.75;4956385;28;20039;-83
2023/07/07 07:59:24;;;;;;;11.57;4.38;;;;;;;20.28;100.00;93142.78;4959495;28;20543;-83
2023/07/07 08:01:50;;;;;;;9.82;4.18;;;;;;;20.52;100.00;93144.69;4960344;28;20119;-83
2023/07/07 08:04:15;;;;;;;12.35;4.68;;;;;;;20.44;100.00;93150.88;4943136;29;20039;-83
2023/07/07 08:06:41;;;;;;;9.82;4.40;;;;;;;20.37;100.00;93149.53;4960402;28;20097;-83
2023/07/07 08:09:07;;;;;;;10.63;3.60;;;;;;;20.63;100.00;93139.75;4959877;29;20043;-83
2023/07/07 08:11:42;;;;;;;11.23;4.55;;;;;;;20.80;100.00;93142.16;4960294;28;20039;-83
2023/07/07 08:14:12;;;;;;;8.40;3.97;;;;;;;20.75;100.00;93145.81;4959647;29;20039;-83
2023/07/07 08:16:38;;;;;;;10.07;4.00;;;;;;;20.83;100.00;93154.00;4942681;29;20035;-83
2023/07/07 08:19:03;;;;;;;7.70;4.00;;;;;;;20.69;100.00;93143.72;4959308;29;20087;-82
2023/07/07 08:21:29;;;;;;;11.40;4.20;;;;;;;20.60;100.00;93146.47;4942511;28;20381;-83
2023/07/07 08:23:55;;;;;;;8.32;4.22;;;;;;;20.72;100.00;93140.41;4959885;29;20039;-83
2023/07/07 08:26:20;;;;;;;8.27;3.75;;;;;;;20.87;100.00;93147.69;4942458;29;20122;-82
2023/07/07 08:28:46;;;;;;;10.02;4.03;;;;;;;20.96;100.00;93151.03;4959697;29;20102;-82
2023/07/07 08:31:11;;;;;;;11.50;4.43;;;;;;;21.14;100.00;93153.41;4959718;29;20102;-83
2023/07/07 08:33:37;;;;;;;10.27;4.05;;;;;;;21.09;100.00;93156.31;4959710;29;20045;-83
2023/07/07 08:36:03;;;;;;;8.98;4.53;;;;;;;21.09;100.00;93158.97;4959855;28;20039;-83
2023/07/07 08:38:28;;;;;;;10.68;4.40;;;;;;;20.88;100.00;93146.59;4927164;29;20106;-83
2023/07/07 08:40:55;;;;;;;10.38;4.45;;;;;;;20.88;100.00;93149.25;4960287;29;20047;-83
2023/07/07 08:43:23;;;;;;;11.90;4.10;;;;;;;20.99;100.00;93145.03;4958895;29;20449;-83
2023/07/07 08:46:08;;;;;;;7.47;4.05;;;;;;;21.05;100.00;93153.53;4958995;28;20029;-83
2023/07/07 08:49:02;;;;;;;10.15;4.07;;;;;;;21.20;100.00;93150.19;4955725;29;20047;-83
2023/07/07 08:51:38;;;;;;;9.02;4.20;;;;;;;21.13;100.00;93157.22;4940166;29;20032;-83
2023/07/07 08:54:23;;;;;;;11.43;4.28;;;;;;;21.08;100.00;93157.44;4941000;29;20039;-83
2023/07/07 08:57:04;;;;;;;9.20;4.55;;;;;;;21.40;100.00;93159.16;4940478;29;20449;-82
2023/07/07 08:59:54;;;;;;;9.77;4.07;;;;;;;21.20;100.00;93168.06;4940063;29;20095;-83
2023/07/07 09:02:28;;;;;;;7.30;3.65;;;;;;;21.26;100.00;93157.97;4941329;29;20032;-82
2023/07/07 09:05:55;;;;;;;9.30;3.70;;;;;;;21.42;100.00;93167.59;4958981;28;20142;-82
2023/07/07 09:08:50;;;;;;;11.13;4.03;;;;;;;21.35;100.00;93164.72;4905865;29;20051;-83
2023/07/07 09:11:36;;;;;;;9.45;4.07;;;;;;;21.19;100.00;93169.19;4957708;29;20028;-83
2023/07/07 09:14:03;;;;;;;6.38;3.17;;;;;;;21.52;100.00;93160.25;4959447;29;20031;-82
2023/07/07 09:16:41;;;;;;;13.57;4.93;;;;;;;21.59;100.00;93165.75;4959600;28;20035;-82
2023/07/07 09:19:06;;;;;;;14.38;4.15;;;;;;;21.71;100.00;93160.41;4959755;28;20031;-81
2023/07/07 09:21:50;;;;;;;8.50;4.05;;;;;;;21.65;100.00;93163.66;4958728;29;20023;-83
2023/07/07 09:24:39;;;;;;;9.75;4.25;;;;;;;21.71;100.00;93165.75;4959020;28;20078;-81
2023/07/07 09:27:23;;;;;;;10.00;3.88;;;;;;;21.82;100.00;93168.69;4958776;28;20066;-80
2023/07/07 09:29:54;;;;;;;9.75;4.07;;;;;;;21.88;100.00;93162.00;4959385;28;20039;-81
2023/07/07 09:32:22;;;;;;;13.45;4.00;;;;;;;22.09;100.00;93161.00;4959221;29;20035;-82
2023/07/07 09:34:48;;;;;;;8.90;3.70;;;;;;;22.24;100.00;93162.94;4958663;28;20038;-82
2023/07/07 09:37:17;;;;;;;6.13;3.40;;;;;;;22.36;100.00;93170.09;4958968;29;20069;-82
2023/07/07 09:39:59;;;;;;;7.97;3.90;;;;;;;22.27;97.22;93169.50;4959045;29;20058;-82
2023/07/07 09:42:47;;;;;;;19.00;4.35;;;;;;;22.40;98.02;93160.28;4958703;29;20027;-81
2023/07/07 09:46:04;;;;;;;23.15;4.88;;;;;;;22.37;95.07;93169.00;4958756;28;20039;-81
2023/07/07 09:49:02;;;;;;;7.72;3.83;;;;;;;22.53;97.35;93169.78;4955534;28;20134;-82
2023/07/07 09:51:51;;;;;;;7.20;3.90;;;;;;;22.52;97.59;93167.47;4927034;29;20047;-81
2023/07/07 09:54:19;;;;;;;6.47;3.15;;;;;;;22.51;96.31;93166.66;4948137;29;20050;-81
2023/07/07 09:57:17;;;;;;;9.30;4.00;;;;;;;22.45;94.98;93176.06;4959049;28;20043;-81
2023/07/07 09:59:48;;;;;;;6.13;3.42;;;;;;;22.66;95.96;93170.47;4919792;29;20413;-82
2023/07/07 10:02:17;;;;;;;8.97;3.70;;;;;;;22.64;97.96;93178.81;4958917;29;20457;-81
2023/07/07 10:04:46;;;;;;;9.63;3.88;;;;;;;22.61;99.11;93165.41;4958494;28;20035;-82
2023/07/07 10:07:16;;;;;;;10.52;3.95;;;;;;;22.55;98.45;93167.53;4958382;29;20035;-82
2023/07/07 10:09:42;;;;;;;8.57;3.80;;;;;;;22.54;95.73;93171.34;4957934;28;20075;-82
2023/07/07 10:12:15;;;;;;;9.02;3.80;;;;;;;22.60;100.00;93163.84;4957983;29;20409;-82
2023/07/07 10:14:40;;;;;;;;;;;;;;;22.56;100.00;93171.78;4941142;28;20039;-81
2023/07/07 10:17:09;;;;;;;8.75;4.05;;;;;;;22.65;98.10;93172.38;4941260;29;19925;-81
2023/07/07 10:19:51;;;;;;;12.13;3.75;;;;;;;22.91;97.99;93168.38;4958245;29;20038;-81
2023/07/07 10:22:17;;;;;;;10.15;3.63;;;;;;;23.05;94.56;93176.72;4957335;28;20041;-82
2023/07/07 10:24:43;;;;;;;10.52;3.97;;;;;;;22.84;97.41;93171.66;4940751;28;20043;-82
2023/07/07 10:27:15;;;;;;;8.88;4.13;;;;;;;22.94;99.59;93173.00;4939918;29;20039;-80
2023/07/07 10:29:43;;;;;;;9.85;3.85;;;;;;;22.93;94.42;93171.47;4938799;29;20043;-81
2023/07/07 10:32:22;;;;;;;7.03;3.72;;;;;;;23.03;93.90;93179.00;4954888;29;20078;-82
2023/07/07 10:34:52;;;;;;;8.25;3.90;;;;;;;23.03;95.11;93176.34;4953981;28;20023;-81
2023/07/07 10:37:21;;;;;;;6.80;3.67;;;;;;;23.11;93.26;93179.16;4954092;29;20460;-81
2023/07/07 10:39:55;;;;;;;12.98;3.97;;;;;;;23.23;91.82;93173.69;4957980;29;20027;-82
2023/07/07 10:42:25;;;;;;;8.65;4.28;;;;;;;23.52;90.25;93183.09;4958716;28;20034;-83
2023/07/07 10:44:52;;;;;;;6.88;3.13;;;;;;;23.56;86.56;93183.94;4945286;28;20039;-82
2023/07/07 10:47:26;;;;;;;10.18;4.00;;;;;;;23.48;84.08;93182.22;4958306;29;20584;-83
2023/07/07 10:49:52;;;;;;;8.38;3.50;;;;;;;23.55;84.69;93186.94;4957220;28;20091;-83
2023/07/07 10:52:29;;;;;;;12.55;4.72;;;;;;;23.52;84.28;93185.75;4959301;29;20035;-82
2023/07/07 10:55:05;;;;;;;8.60;3.33;;;;;;;23.27;84.13;93180.66;4960022;28;20056;-83
2023/07/07 10:57:41;;;;;;;6.43;3.40;;;;;;;23.35;91.13;93186.16;4960237;28;20027;-83
2023/07/07 11:00:13;;;;;;;7.05;4.10;;;;;;;23.50;91.23;93182.66;4951043;29;20501;-83
2023/07/07 11:03:10;;;;;;;7.78;4.10;;;;;;;23.57;87.66;93190.03;4957898;29;20030;-83
2023/07/07 11:05:45;;;;;;;9.15;3.80;;;;;;;23.82;85.28;93180.69;4952546;29;20035;-83
2023/07/07 11:08:55;;;;;;;7.45;4.05;;;;;;;23.77;81.47;93175.59;4958843;28;20035;-83
2023/07/07 11:11:41;;;;;;;7.25;3.50;;;;;;;23.70;80.97;93180.78;4887205;29;20048;-83
2023/07/07 11:14:22;;;;;;;8.30;3.50;;;;;;;23.75;82.02;93185.88;4952474;28;20035;-83
2023/07/07 11:17:12;;;;;;;10.05;3.63;;;;;;;23.67;79.76;93181.50;4956202;28;20035;-82
2023/07/07 11:19:41;;;;;;;9.77;3.80;;;;;;;23.83;74.92;93184.13;4958516;28;20506;-83
2023/07/07 11:22:51;;;;;;;8.00;3.22;;;;;;;24.11;75.38;93189.22;4962366;29;20035;-83
2023/07/07 11:26:11;;;;;;;7.13;3.53;;;;;;;24.04;72.35;93192.53;4959968;28;20027;-83
2023/07/07 11:28:46;;;;;;;8.90;4.20;;;;;;;24.27;76.57;93191.81;4902976;29;20047;-81
2023/07/07 11:31:36;;;;;;;7.90;4.03;;;;;;;24.46;78.86;93188.34;4954227;29;20019;-80
2023/07/07 11:34:22;;;;;;;7.25;3.90;;;;;;;24.78;74.24;93182.78;4957003;28;20059;-81
2023/07/07 11:37:05;;;;;;;9.50;4.03;;;;;;;24.97;71.95;93185.38;4959405;28;20031;-80
2023/07/07 11:39:57;;;;;;;8.02;3.63;;;;;;;24.65;72.76;93177.59;4958725;28;20397;-80